Time;durP1;ratioP1;P1;durP2;ratioP2;P2;SDS_P1;SDS_P2;PMS_P1;PMS_P2;Temp;Humidity;BMP_temperature;BMP_pressure;BME280_temperature;BME280_humidity;BME280_pressure;Samples;Min_cycle;Max_cycle;Signal;HPM_P1;HPM_P2
2023/07/17 00:00:05;;;;;;;8.18;2.30;;;;;;;;;;4960456;28;99101;-79
2023/07/17 00:02:32;;;;;;;9.25;2.40;;;;;;;;;;4963581;28;98245;-80
2023/07/17 00:04:59;;;;;;;8.90;2.00;;;;;;;;;;4968149;28;99087;-79
2023/07/17 00:07:25;;;;;;;7.57;2.15;;;;;;;;;;4960918;28;98526;-80
2023/07/17 00:09:52;;;;;;;8.35;1.95;;;;;;;;;;4959931;28;98408;-79
2023/07/17 00:12:19;;;;;;;8.10;2.00;;;;;;;;;;4940612;28;101909;-79
2023/07/17 00:14:45;;;;;;;8.35;2.20;;;;;;;;;;4960658;28;98081;-79
2023/07/17 00:17:12;;;;;;;7.45;2.20;;;;;;;;;;4960095;28;99313;-80
2023/07/17 00:19:39;;;;;;;11.57;2.58;;;;;;;;;;4960195;28;99075;-79
2023/07/17 00:22:06;;;;;;;7.78;2.05;;;;;;;;;;4959041;28;98984;-79
2023/07/17 00:24:33;;;;;;;7.88;2.00;;;;;;;;;;4962191;28;98297;-80
2023/07/17 00:27:01;;;;;;;7.60;2.20;;;;;;;;;;4958917;28;98483;-80
2023/07/17 00:29:30;;;;;;;8.13;1.70;;;;;;;;;;4942516;28;98885;-80
2023/07/17 00:31:57;;;;;;;8.65;2.10;;;;;;;;;;4941756;28;101271;-80
2023/07/17 00:34:23;;;;;;;9.00;2.05;;;;;;;;;;4960820;28;97698;-79
2023/07/17 00:36:50;;;;;;;9.85;2.17;;;;;;;;;;4958775;28;98105;-79
2023/07/17 00:39:18;;;;;;;9.32;2.20;;;;;;;;;;4950301;28;99046;-79
2023/07/17 00:41:46;;;;;;;8.50;1.92;;;;;;;;;;4958066;28;99037;-79
2023/07/17 00:44:12;;;;;;;7.45;2.42;;;;;;;;;;4959056;28;100498;-79
2023/07/17 00:46:39;;;;;;;6.70;2.30;;;;;;;;;;4973080;28;100230;-78
2023/07/17 00:49:06;;;;;;;8.40;2.28;;;;;;;;;;4958683;28;98391;-78
2023/07/17 00:51:33;;;;;;;8.00;1.90;;;;;;;;;;4958192;28;98828;-78
2023/07/17 00:54:00;;;;;;;8.52;2.30;;;;;;;;;;4959790;28;98121;-79
2023/07/17 00:56:28;;;;;;;10.55;2.38;;;;;;;;;;4958468;28;100966;-80
2023/07/17 00:58:54;;;;;;;7.75;2.42;;;;;;;;;;4958505;28;101280;-79
2023/07/17 01:01:21;;;;;;;7.80;2.17;;;;;;;;;;4959725;28;98247;-79
2023/07/17 01:03:49;;;;;;;8.43;1.90;;;;;;;;;;4958514;28;100973;-79
2023/07/17 01:06:18;;;;;;;9.45;2.30;;;;;;;;;;4949835;28;101529;-80
2023/07/17 01:08:44;;;;;;;7.82;2.22;;;;;;;;;;4951876;28;98428;-79
2023/07/17 01:11:11;;;;;;;8.90;2.20;;;;;;;;;;4957102;28;101540;-80
2023/07/17 01:13:45;;;;;;;7.82;1.95;;;;;;;;;;4958076;28;98282;-79
2023/07/17 01:16:12;;;;;;;9.50;2.58;;;;;;;;;;4958094;28;98835;-79
2023/07/17 01:18:39;;;;;;;7.82;2.03;;;;;;;;;;4957720;28;101465;-80
2023/07/17 01:21:06;;;;;;;6.55;2.00;;;;;;;;;;4958144;28;98252;-79
2023/07/17 01:23:33;;;;;;;7.40;2.15;;;;;;;;;;4960019;28;98924;-79
2023/07/17 01:25:59;;;;;;;8.35;2.03;;;;;;;;;;4958927;28;98667;-79
2023/07/17 01:28:26;;;;;;;8.35;2.30;;;;;;;;;;4962442;28;98074;-78
2023/07/17 01:30:53;;;;;;;6.45;2.00;;;;;;;;;;4958495;28;99889;-79
2023/07/17 01:33:20;;;;;;;9.63;2.33;;;;;;;;;;4958782;28;99346;-78
2023/07/17 01:35:46;;;;;;;7.00;1.95;;;;;;;;;;4957944;28;100980;-78
2023/07/17 01:38:13;;;;;;;8.05;2.08;;;;;;;;;;4956868;28;101606;-78
2023/07/17 01:40:39;;;;;;;8.02;2.17;;;;;;;;;;4957668;28;98511;-80
2023/07/17 01:43:07;;;;;;;7.60;1.70;;;;;;;;;;4965709;28;98570;-77
2023/07/17 01:45:33;;;;;;;8.82;1.70;;;;;;;;;;4958304;28;99513;-79
2023/07/17 01:47:59;;;;;;;7.93;2.35;;;;;;;;;;4959251;28;97572;-78
2023/07/17 01:50:26;;;;;;;8.77;1.90;;;;;;;;;;4960832;28;100642;-78
2023/07/17 01:52:53;;;;;;;7.82;2.00;;;;;;;;;;4958819;28;98429;-78
2023/07/17 01:55:19;;;;;;;6.88;2.15;;;;;;;;;;4957443;28;101006;-78
2023/07/17 01:57:46;;;;;;;6.35;1.83;;;;;;;;;;4961855;28;98729;-78
2023/07/17 02:00:12;;;;;;;7.00;1.80;;;;;;;;;;4941599;28;98191;-78
2023/07/17 02:02:39;;;;;;;6.43;1.50;;;;;;;;;;4958968;28;98273;-78
2023/07/17 02:05:06;;;;;;;6.13;1.98;;;;;;;;;;4973612;28;101086;-79
2023/07/17 02:07:33;;;;;;;5.78;1.70;;;;;;;;;;4953010;28;98205;-78
2023/07/17 02:10:03;;;;;;;5.10;1.50;;;;;;;;;;4957551;28;98938;-78
2023/07/17 02:12:30;;;;;;;6.70;1.60;;;;;;;;;;4969747;28;97821;-78
2023/07/17 02:14:58;;;;;;;5.50;1.83;;;;;;;;;;4957587;28;100696;-79
2023/07/17 02:17:25;;;;;;;8.27;1.80;;;;;;;;;;4956934;28;99094;-76
2023/07/17 02:19:51;;;;;;;5.75;1.70;;;;;;;;;;4958663;28;99276;-76
2023/07/17 02:22:19;;;;;;;8.05;2.10;;;;;;;;;;4958554;28;99139;-77
2023/07/17 02:24:46;;;;;;;6.57;1.90;;;;;;;;;;4957159;28;101377;-77
2023/07/17 02:27:12;;;;;;;6.75;1.90;;;;;;;;;;4957429;28;98690;-76
2023/07/17 02:29:39;;;;;;;5.18;1.60;;;;;;;;;;4959017;28;98703;-77
2023/07/17 02:32:06;;;;;;;7.35;2.03;;;;;;;;;;4957857;28;98647;-77
2023/07/17 02:34:32;;;;;;;;;;;;;;;;;;4960893;28;98424;-77
2023/07/17 02:36:59;;;;;;;5.93;1.77;;;;;;;;;;4959957;28;99781;-77
2023/07/17 02:39:25;;;;;;;8.13;2.10;;;;;;;;;;4941529;28;98671;-77
2023/07/17 02:41:52;;;;;;;8.20;2.25;;;;;;;;;;4958075;28;99641;-76
2023/07/17 02:44:19;;;;;;;6.20;2.20;;;;;;;;;;4956152;28;101868;-77
2023/07/17 02:46:46;;;;;;;8.18;2.13;;;;;;;;;;4956625;28;98218;-77
2023/07/17 02:49:13;;;;;;;7.18;1.92;;;;;;;;;;4958652;28;98742;-77
2023/07/17 02:51:41;;;;;;;6.68;2.08;;;;;;;;;;4960848;28;98862;-77
2023/07/17 02:54:07;;;;;;;5.78;1.63;;;;;;;;;;4960449;28;98103;-76
2023/07/17 02:56:34;;;;;;;7.93;1.90;;;;;;;;;;4963254;28;101374;-76
2023/07/17 02:59:00;;;;;;;5.43;1.80;;;;;;;;;;4961691;28;98213;-77
2023/07/17 03:01:27;;;;;;;5.38;1.50;;;;;;;;;;4962248;28;98989;-79
2023/07/17 03:03:54;;;;;;;6.30;2.00;;;;;;;;;;4959891;28;98993;-77
2023/07/17 03:06:21;;;;;;;6.55;1.75;;;;;;;;;;4961559;28;98470;-79
2023/07/17 03:08:48;;;;;;;7.60;1.80;;;;;;;;;;4961027;28;99174;-78
2023/07/17 03:11:14;;;;;;;4.72;1.50;;;;;;;;;;4960446;28;98996;-78
2023/07/17 03:13:41;;;;;;;5.38;1.70;;;;;;;;;;4960246;28;98412;-78
2023/07/17 03:16:08;;;;;;;8.60;1.90;;;;;;;;;;4963046;28;100649;-78
2023/07/17 03:18:34;;;;;;;8.27;2.00;;;;;;;;;;4961479;28;98320;-78
2023/07/17 03:21:01;;;;;;;7.57;2.17;;;;;;;;;;4963290;28;98508;-78
2023/07/17 03:23:27;;;;;;;6.38;2.10;;;;;;;;;;4959809;28;99448;-79
2023/07/17 03:25:55;;;;;;;9.00;2.20;;;;;;;;;;4961799;28;97425;-78
2023/07/17 03:28:22;;;;;;;6.35;2.03;;;;;;;;;;4940403;28;98732;-79
2023/07/17 03:30:49;;;;;;;7.13;1.80;;;;;;;;;;4951625;28;99413;-78
2023/07/17 03:33:15;;;;;;;5.93;1.65;;;;;;;;;;4957005;28;98962;-78
2023/07/17 03:35:45;;;;;;;9.57;2.05;;;;;;;;;;4959585;28;101384;-78
2023/07/17 03:38:12;;;;;;;5.57;1.90;;;;;;;;;;4962425;28;98893;-78
2023/07/17 03:40:39;;;;;;;7.38;2.08;;;;;;;;;;4975996;28;100988;-78
2023/07/17 03:43:05;;;;;;;6.28;2.10;;;;;;;;;;4959079;28;101444;-77
2023/07/17 03:45:32;;;;;;;6.82;2.20;;;;;;;;;;4961275;28;98513;-78
2023/07/17 03:48:01;;;;;;;6.95;2.10;;;;;;;;;;4959275;28;98864;-77
2023/07/17 03:50:30;;;;;;;6.75;2.33;;;;;;;;;;4968483;28;99930;-77
2023/07/17 03:52:56;;;;;;;6.47;2.20;;;;;;;;;;4960818;28;98137;-77
2023/07/17 03:55:23;;;;;;;9.07;2.20;;;;;;;;;;4943452;28;100517;-77
2023/07/17 03:57:49;;;;;;;6.93;1.98;;;;;;;;;;4957808;28;99459;-77
2023/07/17 04:00:16;;;;;;;7.82;2.20;;;;;;;;;;4978851;28;98168;-77
2023/07/17 04:02:43;;;;;;;8.63;2.10;;;;;;;;;;4960024;28;98903;-76
2023/07/17 04:05:30;;;;;;;10.95;2.58;;;;;;;;;;4964512;28;98175;-77
2023/07/17 04:07:57;;;;;;;6.40;2.10;;;;;;;;;;4947962;28;101689;-76
2023/07/17 04:10:24;;;;;;;8.00;2.20;;;;;;;;;;4957652;28;101445;-77
2023/07/17 04:12:50;;;;;;;8.98;2.63;;;;;;;;;;4942268;28;98961;-76
2023/07/17 04:15:17;;;;;;;9.60;2.47;;;;;;;;;;4959178;28;100647;-76
2023/07/17 04:17:43;;;;;;;6.40;2.20;;;;;;;;;;4959796;28;99033;-76
2023/07/17 04:20:10;;;;;;;9.32;2.38;;;;;;;;;;4960301;28;98109;-76
2023/07/17 04:22:37;;;;;;;8.68;2.60;;;;;;;;;;4960692;28;100930;-76
2023/07/17 04:25:04;;;;;;;9.23;2.63;;;;;;;;;;4965075;28;98247;-75
2023/07/17 04:27:31;;;;;;;8.00;2.30;;;;;;;;;;4957850;28;98465;-76
2023/07/17 04:29:59;;;;;;;8.70;2.28;;;;;;;;;;4939011;28;98802;-76
2023/07/17 04:32:26;;;;;;;7.13;2.67;;;;;;;;;;4950511;28;98171;-76
2023/07/17 04:34:53;;;;;;;8.43;2.65;;;;;;;;;;4960041;28;98358;-76
2023/07/17 04:37:19;;;;;;;8.55;2.58;;;;;;;;;;4959117;28;98745;-77
2023/07/17 04:39:46;;;;;;;10.18;2.50;;;;;;;;;;4965330;28;98096;-76
2023/07/17 04:42:13;;;;;;;8.43;2.30;;;;;;;;;;4958143;28;100664;-76
2023/07/17 04:44:40;;;;;;;9.85;2.58;;;;;;;;;;4961365;28;100532;-77
2023/07/17 04:47:06;;;;;;;12.32;2.60;;;;;;;;;;4967558;28;98937;-77
2023/07/17 04:49:34;;;;;;;9.93;2.65;;;;;;;;;;4958001;28;101468;-78
2023/07/17 04:52:01;;;;;;;8.90;2.88;;;;;;;;;;4958111;28;98253;-78
2023/07/17 04:54:27;;;;;;;10.18;2.90;;;;;;;;;;4958326;28;100645;-77
2023/07/17 04:56:54;;;;;;;9.23;2.78;;;;;;;;;;4957532;28;101507;-78
2023/07/17 04:59:22;;;;;;;10.93;2.20;;;;;;;;;;4957342;28;98500;-78
2023/07/17 05:01:49;;;;;;;8.98;3.28;;;;;;;;;;4962545;28;98291;-79
2023/07/17 05:04:16;;;;;;;11.07;3.25;;;;;;;;;;4958273;28;100380;-77
2023/07/17 05:06:42;;;;;;;8.73;2.42;;;;;;;;;;4961174;28;98242;-77
2023/07/17 05:09:10;;;;;;;10.50;3.08;;;;;;;;;;4957480;28;101335;-78
2023/07/17 05:11:36;;;;;;;8.75;3.08;;;;;;;;;;4957013;28;99327;-77
2023/07/17 05:14:03;;;;;;;11.30;3.17;;;;;;;;;;4956763;28;102125;-77
2023/07/17 05:16:30;;;;;;;10.70;2.90;;;;;;;;;;4957361;28;101582;-78
2023/07/17 05:18:56;;;;;;;9.07;2.72;;;;;;;;;;4957510;28;99529;-77
2023/07/17 05:21:23;;;;;;;10.73;2.85;;;;;;;;;;4938245;28;100380;-77
2023/07/17 05:23:50;;;;;;;11.57;3.65;;;;;;;;;;4949134;28;101499;-77
2023/07/17 05:26:19;;;;;;;10.65;3.20;;;;;;;;;;4960738;28;98126;-76
2023/07/17 05:28:49;;;;;;;9.75;2.97;;;;;;;;;;4957467;28;100109;-77
2023/07/17 05:31:15;;;;;;;12.15;3.55;;;;;;;;;;4957357;28;98579;-77
2023/07/17 05:33:43;;;;;;;12.55;3.33;;;;;;;;;;4956855;28;101148;-77
2023/07/17 05:36:10;;;;;;;10.80;3.78;;;;;;;;;;4956661;28;102499;-77
2023/07/17 05:38:37;;;;;;;13.23;3.95;;;;;;;;;;4953815;28;98675;-77
2023/07/17 05:41:05;;;;;;;12.70;3.85;;;;;;;;;;4951554;28;101377;-77
2023/07/17 05:43:32;;;;;;;9.35;3.30;;;;;;;;;;4957921;28;99106;-76
2023/07/17 05:46:05;;;;;;;8.10;2.92;;;;;;;;;;4958819;28;98169;-76
2023/07/17 05:48:31;;;;;;;10.00;3.00;;;;;;;;;;4961144;28;98333;-76
2023/07/17 05:50:58;;;;;;;9.27;2.78;;;;;;;;;;4957084;28;98473;-75
2023/07/17 05:53:24;;;;;;;8.65;2.97;;;;;;;;;;4958882;28;98630;-77
2023/07/17 05:55:52;;;;;;;8.02;2.70;;;;;;;;;;4943542;28;102955;-78
2023/07/17 05:58:18;;;;;;;7.82;2.60;;;;;;;;;;4960920;28;98238;-77
2023/07/17 06:00:45;;;;;;;8.48;2.92;;;;;;;;;;4938935;28;101327;-76
2023/07/17 06:03:12;;;;;;;9.25;2.67;;;;;;;;;;4947243;28;101593;-77
2023/07/17 06:05:38;;;;;;;9.18;2.78;;;;;;;;;;4958648;28;98114;-77
2023/07/17 06:08:05;;;;;;;7.97;2.70;;;;;;;;;;4958279;28;99153;-77
2023/07/17 06:10:32;;;;;;;8.23;2.70;;;;;;;;;;4968318;28;99141;-76
2023/07/17 06:12:59;;;;;;;7.72;2.65;;;;;;;;;;4957039;28;98508;-76
2023/07/17 06:15:26;;;;;;;9.32;3.00;;;;;;;;;;4956817;28;99482;-78
2023/07/17 06:17:53;;;;;;;6.97;2.70;;;;;;;;;;4973476;28;98044;-77
2023/07/17 06:20:20;;;;;;;8.02;2.95;;;;;;;;;;4957086;28;100486;-78
2023/07/17 06:22:47;;;;;;;8.98;3.03;;;;;;;;;;4956109;28;101029;-78
2023/07/17 06:25:14;;;;;;;9.23;3.17;;;;;;;;;;4962373;28;99366;-77
2023/07/17 06:27:41;;;;;;;10.18;3.05;;;;;;;;;;4955905;28;101990;-77
2023/07/17 06:30:07;;;;;;;9.10;2.80;;;;;;;;;;4944702;28;99129;-77
2023/07/17 06:32:34;;;;;;;8.45;2.85;;;;;;;;;;4944140;28;98598;-78
2023/07/17 06:35:01;;;;;;;7.75;2.90;;;;;;;;;;4945916;28;98712;-77
2023/07/17 06:37:27;;;;;;;12.88;3.60;;;;;;;;;;4937423;28;100007;-77
2023/07/17 06:39:54;;;;;;;10.50;3.50;;;;;;;;;;4956625;28;99227;-76
2023/07/17 06:42:20;;;;;;;8.52;2.90;;;;;;;;;;4951953;28;100605;-77
2023/07/17 06:44:47;;;;;;;12.70;3.50;;;;;;;;;;4962294;28;98196;-78
2023/07/17 06:47:13;;;;;;;9.25;3.22;;;;;;;;;;4960222;28;98543;-78
2023/07/17 06:50:00;;;;;;;10.48;3.45;;;;;;;;;;4943714;28;99451;-77
2023/07/17 06:52:26;;;;;;;9.20;3.67;;;;;;;;;;4954470;28;98598;-77
2023/07/17 06:54:53;;;;;;;9.43;3.35;;;;;;;;;;4950688;28;98363;-79
2023/07/17 06:57:30;;;;;;;8.93;3.55;;;;;;;;;;4950533;28;98247;-78
2023/07/17 06:59:57;;;;;;;9.10;3.17;;;;;;;;;;4958841;28;98580;-78
2023/07/17 07:02:24;;;;;;;11.27;3.45;;;;;;;;;;4943238;28;99013;-79
2023/07/17 07:04:50;;;;;;;9.98;3.15;;;;;;;;;;4945974;28;100729;-78
2023/07/17 07:07:17;;;;;;;9.52;3.60;;;;;;;;;;4943652;28;99148;-78
2023/07/17 07:09:45;;;;;;;11.85;3.83;;;;;;;;;;4946531;28;99236;-79
2023/07/17 07:12:11;;;;;;;11.13;4.03;;;;;;;;;;4944065;28;98435;-78
2023/07/17 07:14:38;;;;;;;8.43;3.45;;;;;;;;;;4939603;28;99669;-78
2023/07/17 07:17:04;;;;;;;8.48;3.20;;;;;;;;;;4941008;28;101649;-78
2023/07/17 07:19:31;;;;;;;10.73;3.78;;;;;;;;;;4937112;28;99240;-77
2023/07/17 07:21:57;;;;;;;10.93;3.90;;;;;;;;;;4945345;28;101344;-78
2023/07/17 07:24:24;;;;;;;9.88;3.70;;;;;;;;;;4944949;28;98456;-77
2023/07/17 07:26:50;;;;;;;10.18;3.63;;;;;;;;;;4940887;28;98820;-78
2023/07/17 07:29:17;;;;;;;9.32;3.22;;;;;;;;;;4941365;28;99242;-77
2023/07/17 07:31:43;;;;;;;9.15;3.40;;;;;;;;;;4943042;28;97530;-77
2023/07/17 07:34:10;;;;;;;9.30;3.72;;;;;;;;;;4960110;28;98574;-77
2023/07/17 07:36:37;;;;;;;10.43;3.63;;;;;;;;;;4952483;28;99861;-78
2023/07/17 07:39:05;;;;;;;10.13;3.83;;;;;;;;;;4957960;28;99632;-77
2023/07/17 07:41:32;;;;;;;12.23;3.65;;;;;;;;;;4941153;28;98784;-78
2023/07/17 07:43:59;;;;;;;11.00;3.78;;;;;;;;;;4950903;28;98614;-77
2023/07/17 07:46:26;;;;;;;8.90;3.47;;;;;;;;;;4941607;28;100616;-77
2023/07/17 07:48:53;;;;;;;11.07;3.90;;;;;;;;;;4943905;28;98928;-78
2023/07/17 07:51:19;;;;;;;8.20;3.55;;;;;;;;;;4952230;28;98737;-77
2023/07/17 07:53:46;;;;;;;11.23;3.95;;;;;;;;;;4944152;28;98502;-78
2023/07/17 07:56:12;;;;;;;9.23;3.50;;;;;;;;;;4955181;28;98318;-78
2023/07/17 07:58:39;;;;;;;10.35;3.63;;;;;;;;;;4944886;28;98404;-77
2023/07/17 08:01:05;;;;;;;9.82;3.40;;;;;;;;;;4949075;28;99258;-77
2023/07/17 08:03:33;;;;;;;9.15;3.10;;;;;;;;;;4946962;28;101724;-78
2023/07/17 08:06:00;;;;;;;10.50;3.65;;;;;;;;;;4957022;28;101000;-77
2023/07/17 08:08:26;;;;;;;9.88;3.75;;;;;;;;;;4939557;28;99215;-77
2023/07/17 08:10:53;;;;;;;9.20;4.05;;;;;;;;;;4951998;28;98233;-77
2023/07/17 08:13:20;;;;;;;9.25;3.80;;;;;;;;;;4947453;28;98764;-77
2023/07/17 08:15:47;;;;;;;10.63;3.63;;;;;;;;;;4958526;28;101434;-77
2023/07/17 08:18:13;;;;;;;;;;;;;;;;;;4948978;28;98759;-77
2023/07/17 08:20:40;;;;;;;8.65;3.35;;;;;;;;;;4946060;28;109823;-78
2023/07/17 08:23:07;;;;;;;10.88;3.65;;;;;;;;;;4946000;28;98545;-77
2023/07/17 08:25:34;;;;;;;10.80;3.60;;;;;;;;;;4952644;28;98436;-77
2023/07/17 08:28:00;;;;;;;10.80;4.13;;;;;;;;;;4939823;28;99545;-77
2023/07/17 08:30:27;;;;;;;9.90;3.92;;;;;;;;;;4941218;28;98296;-78
2023/07/17 08:32:53;;;;;;;9.95;3.50;;;;;;;;;;4955585;28;98634;-78
2023/07/17 08:35:20;;;;;;;9.98;3.30;;;;;;;;;;4958846;28;101414;-78
2023/07/17 08:37:47;;;;;;;9.52;3.38;;;;;;;;;;4937991;28;98220;-78
2023/07/17 08:40:13;;;;;;;9.65;3.17;;;;;;;;;;4956948;28;98546;-78
2023/07/17 08:42:43;;;;;;;8.43;3.20;;;;;;;;;;4957585;28;98837;-78
2023/07/17 08:45:11;;;;;;;9.77;3.22;;;;;;;;;;4947561;28;100574;-77
2023/07/17 08:47:37;;;;;;;7.88;3.10;;;;;;;;;;4935369;28;101462;-79
2023/07/17 08:50:04;;;;;;;8.93;3.30;;;;;;;;;;4940938;28;98931;-78
2023/07/17 08:52:31;;;;;;;9.85;3.40;;;;;;;;;;4953152;28;101286;-79
2023/07/17 08:54:58;;;;;;;;;;;;;;;;;;4939030;28;101449;-78
2023/07/17 08:57:26;;;;;;;7.93;3.03;;;;;;;;;;4939273;28;107122;-79
2023/07/17 08:59:54;;;;;;;8.15;3.15;;;;;;;;;;4946897;28;98763;-78
2023/07/17 09:02:20;;;;;;;8.32;3.00;;;;;;;;;;4954483;28;99054;-78
2023/07/17 09:04:47;;;;;;;8.02;2.78;;;;;;;;;;4945941;28;98485;-78
2023/07/17 09:07:13;;;;;;;7.95;2.85;;;;;;;;;;4938786;28;98776;-79
2023/07/17 09:09:40;;;;;;;8.73;3.00;;;;;;;;;;4958893;28;97708;-79
2023/07/17 09:12:07;;;;;;;8.77;3.28;;;;;;;;;;4952604;28;98842;-78
2023/07/17 09:14:34;;;;;;;8.88;3.20;;;;;;;;;;4952056;28;99659;-78
2023/07/17 09:17:07;;;;;;;10.57;3.55;;;;;;;;;;4940566;28;99126;-79
2023/07/17 09:19:35;;;;;;;8.25;3.80;;;;;;;;;;4942108;28;99184;-79
2023/07/17 09:22:02;;;;;;;7.85;3.20;;;;;;;;;;4936514;28;101593;-79
2023/07/17 09:24:29;;;;;;;7.45;2.97;;;;;;;;;;4946318;28;98808;-79
2023/07/17 09:26:56;;;;;;;8.85;3.30;;;;;;;;;;4949807;28;99143;-79
2023/07/17 09:29:23;;;;;;;;;;;;;;;;;;4957313;28;98518;-79
2023/07/17 09:31:50;;;;;;;8.63;3.55;;;;;;;;;;4956945;28;109200;-79
2023/07/17 09:34:17;;;;;;;8.38;3.33;;;;;;;;;;4959261;28;98048;-79
2023/07/17 09:36:43;;;;;;;9.75;3.58;;;;;;;;;;4951245;28;98467;-79
2023/07/17 09:39:11;;;;;;;9.55;3.25;;;;;;;;;;4958072;28;101236;-79
2023/07/17 09:41:37;;;;;;;8.27;2.90;;;;;;;;;;4950508;28;99613;-79
2023/07/17 09:44:04;;;;;;;10.18;3.40;;;;;;;;;;4959157;28;98578;-79
2023/07/17 09:46:31;;;;;;;;;;;;;;;;;;4958809;28;101514;-78
2023/07/17 09:48:58;;;;;;;9.65;3.05;;;;;;;;;;4957631;28;111230;-79
2023/07/17 09:51:25;;;;;;;7.63;2.85;;;;;;;;;;4950334;28;99115;-78
2023/07/17 09:53:51;;;;;;;8.60;2.80;;;;;;;;;;4950548;28;99199;-77
2023/07/17 09:56:18;;;;;;;7.50;3.03;;;;;;;;;;4960719;28;99301;-77
2023/07/17 09:58:50;;;;;;;8.38;2.83;;;;;;;;;;4958988;28;101140;-78
2023/07/17 10:01:23;;;;;;;10.07;3.20;;;;;;;;;;4949518;28;99256;-78
2023/07/17 10:03:50;;;;;;;8.93;3.00;;;;;;;;;;4944599;28;98300;-78
2023/07/17 10:06:18;;;;;;;8.80;3.10;;;;;;;;;;4958138;28;98830;-78
2023/07/17 10:08:46;;;;;;;8.15;3.00;;;;;;;;;;4948390;28;99458;-76
2023/07/17 10:11:14;;;;;;;7.68;2.97;;;;;;;;;;4955253;28;100749;-76
2023/07/17 10:13:42;;;;;;;7.30;2.60;;;;;;;;;;4957104;28;98827;-76
2023/07/17 10:16:09;;;;;;;8.57;2.60;;;;;;;;;;4957638;28;98485;-76
2023/07/17 10:18:45;;;;;;;7.75;2.72;;;;;;;;;;4937297;28;101573;-77
2023/07/17 10:21:13;;;;;;;7.38;2.30;;;;;;;;;;4957879;28;101025;-77
2023/07/17 10:23:41;;;;;;;8.77;2.42;;;;;;;;;;4947326;28;97696;-76
2023/07/17 10:26:08;;;;;;;6.05;2.10;;;;;;;;;;4958077;28;98143;-76
2023/07/17 10:28:36;;;;;;;8.32;2.78;;;;;;;;;;4945411;28;99519;-76
2023/07/17 10:31:08;;;;;;;9.15;2.80;;;;;;;;;;4951997;28;98891;-76
2023/07/17 10:33:35;;;;;;;7.38;2.75;;;;;;;;;;4954141;28;101001;-76
2023/07/17 10:36:02;;;;;;;6.45;2.15;;;;;;;;;;4950246;28;98445;-76
2023/07/17 10:38:30;;;;;;;8.50;2.45;;;;;;;;;;4961586;28;99477;-76
2023/07/17 10:41:04;;;;;;;8.77;2.45;;;;;;;;;;4941574;28;99088;-76
2023/07/17 10:43:32;;;;;;;6.35;2.20;;;;;;;;;;4945331;28;98071;-76
2023/07/17 10:45:58;;;;;;;6.30;2.35;;;;;;;;;;4943977;28;98967;-76
2023/07/17 10:48:25;;;;;;;7.18;2.33;;;;;;;;;;4955798;28;98674;-76
2023/07/17 10:50:53;;;;;;;8.43;2.78;;;;;;;;;;4955148;28;100264;-76
2023/07/17 10:53:20;;;;;;;8.25;2.92;;;;;;;;;;4941007;28;98519;-76
2023/07/17 10:55:47;;;;;;;7.80;2.42;;;;;;;;;;4943287;28;98888;-77
2023/07/17 10:58:14;;;;;;;10.02;3.13;;;;;;;;;;4946060;28;101776;-78
2023/07/17 11:00:42;;;;;;;9.38;2.85;;;;;;;;;;4955509;28;102066;-76
2023/07/17 11:03:09;;;;;;;8.68;3.10;;;;;;;;;;4958023;28;98400;-78
2023/07/17 11:05:36;;;;;;;9.85;3.05;;;;;;;;;;4959288;28;98372;-76
2023/07/17 11:08:03;;;;;;;8.35;2.80;;;;;;;;;;4956997;28;99212;-77
2023/07/17 11:10:30;;;;;;;;;;;;;;;;;;4956579;28;98234;-77
2023/07/17 11:13:00;;;;;;;9.32;2.65;;;;;;;;;;4961526;28;115288;-77
2023/07/17 11:15:26;;;;;;;7.53;2.47;;;;;;;;;;4963168;28;99629;-77
2023/07/17 11:17:53;;;;;;;7.10;2.70;;;;;;;;;;4959358;28;98568;-77
2023/07/17 11:20:19;;;;;;;7.35;2.47;;;;;;;;;;4959591;28;99646;-76
2023/07/17 11:22:46;;;;;;;8.10;2.65;;;;;;;;;;4958832;28;98558;-77
2023/07/17 11:25:13;;;;;;;8.10;2.80;;;;;;;;;;4959133;28;101224;-77
2023/07/17 11:27:40;;;;;;;6.80;2.60;;;;;;;;;;4955778;28;99173;-77
2023/07/17 11:30:14;;;;;;;8.63;2.83;;;;;;;;;;4959018;28;98785;-77
2023/07/17 11:32:41;;;;;;;9.82;3.10;;;;;;;;;;4958174;28;98418;-77
2023/07/17 11:35:08;;;;;;;8.18;2.95;;;;;;;;;;4959698;28;100356;-77
2023/07/17 11:37:37;;;;;;;9.38;3.03;;;;;;;;;;4963483;28;97486;-77
2023/07/17 11:40:05;;;;;;;7.25;2.60;;;;;;;;;;4960265;28;98823;-77
2023/07/17 11:42:50;;;;;;;8.15;3.00;;;;;;;;;;4964148;28;98322;-76
2023/07/17 11:45:19;;;;;;;9.25;3.00;;;;;;;;;;4949484;28;98800;-77
2023/07/17 11:47:45;;;;;;;7.10;2.53;;;;;;;;;;4958221;28;99431;-77
2023/07/17 11:50:12;;;;;;;8.45;2.78;;;;;;;;;;4960164;28;98202;-77
2023/07/17 11:52:39;;;;;;;8.15;3.10;;;;;;;;;;4958051;28;98416;-77
2023/07/17 11:55:05;;;;;;;8.93;3.00;;;;;;;;;;4945728;28;98693;-76
2023/07/17 11:57:32;;;;;;;10.93;3.42;;;;;;;;;;4954745;28;98251;-77
2023/07/17 12:00:03;;;;;;;8.40;2.95;;;;;;;;;;4959977;28;99431;-77
2023/07/17 12:02:37;;;;;;;8.02;2.90;;;;;;;;;;4952103;28;97403;-77
2023/07/17 12:05:03;;;;;;;8.57;2.63;;;;;;;;;;4967536;28;100465;-77
2023/07/17 12:07:30;;;;;;;10.40;3.13;;;;;;;;;;4957895;28;98942;-77
2023/07/17 12:09:57;;;;;;;11.73;3.35;;;;;;;;;;4959692;28;98956;-77
2023/07/17 12:12:23;;;;;;;9.65;3.50;;;;;;;;;;4951615;28;101769;-77
2023/07/17 12:14:50;;;;;;;10.95;3.50;;;;;;;;;;4940273;28;98728;-76
2023/07/17 12:17:17;;;;;;;10.85;2.95;;;;;;;;;;4956755;28;98138;-76
2023/07/17 12:19:44;;;;;;;10.95;3.80;;;;;;;;;;4963021;28;98667;-77
2023/07/17 12:22:10;;;;;;;9.13;3.33;;;;;;;;;;4958204;28;98152;-76
2023/07/17 12:24:40;;;;;;;11.32;4.18;;;;;;;;;;4959851;28;98831;-76
2023/07/17 12:27:07;;;;;;;10.07;3.63;;;;;;;;;;4966714;28;101098;-78
2023/07/17 12:29:33;;;;;;;9.68;3.45;;;;;;;;;;4962588;28;98703;-77
2023/07/17 12:32:00;;;;;;;9.65;3.10;;;;;;;;;;4960107;28;98543;-76
2023/07/17 12:34:27;;;;;;;10.48;3.75;;;;;;;;;;4950651;28;99627;-77
2023/07/17 12:36:53;;;;;;;9.73;3.17;;;;;;;;;;4940096;28;98202;-76
2023/07/17 12:39:22;;;;;;;8.93;3.20;;;;;;;;;;4952431;28;98539;-79
2023/07/17 12:41:49;;;;;;;9.43;2.95;;;;;;;;;;4962435;28;99152;-77
2023/07/17 12:44:15;;;;;;;9.63;3.15;;;;;;;;;;4958000;28;98691;-78
2023/07/17 12:46:42;;;;;;;9.27;2.90;;;;;;;;;;4964032;28;101063;-77
2023/07/17 12:49:11;;;;;;;9.13;3.10;;;;;;;;;;4954542;28;98265;-77
2023/07/17 12:51:38;;;;;;;9.15;2.95;;;;;;;;;;4953027;28;98761;-77
2023/07/17 12:54:05;;;;;;;8.10;2.90;;;;;;;;;;4937821;28;101456;-76
2023/07/17 12:56:32;;;;;;;;;;;;;;;;;;4945899;28;98579;-77
2023/07/17 12:58:58;;;;;;;9.57;2.70;;;;;;;;;;4954716;28;121134;-78
2023/07/17 13:01:25;;;;;;;6.25;2.70;;;;;;;;;;4948366;28;98847;-78
2023/07/17 13:03:51;;;;;;;7.22;2.80;;;;;;;;;;4944746;28;98171;-78
2023/07/17 13:06:20;;;;;;;8.43;3.05;;;;;;;;;;4939232;28;99218;-78
2023/07/17 13:08:47;;;;;;;7.57;3.00;;;;;;;;;;4939762;28;98211;-78
2023/07/17 13:11:14;;;;;;;7.45;2.83;;;;;;;;;;4948809;28;98453;-78
2023/07/17 13:13:41;;;;;;;;;;;;;;;;;;4959389;28;99963;-78
2023/07/17 13:16:07;;;;;;;6.70;2.55;;;;;;;;;;4960634;28;102386;-78
2023/07/17 13:18:35;;;;;;;6.70;2.80;;;;;;;;;;4946768;28;98558;-78
2023/07/17 13:21:01;;;;;;;6.70;2.67;;;;;;;;;;4946006;28;99859;-77
2023/07/17 13:23:28;;;;;;;9.48;2.92;;;;;;;;;;4958586;28;99927;-79
2023/07/17 13:25:54;;;;;;;6.95;2.67;;;;;;;;;;4961338;28;99234;-78
2023/07/17 13:28:21;;;;;;;6.93;2.95;;;;;;;;;;4958518;28;98779;-78
2023/07/17 13:30:47;;;;;;;7.50;2.72;;;;;;;;;;4958758;28;99080;-79
2023/07/17 13:33:33;;;;;;;;;;;;;;;;;;4947911;28;98760;-80
2023/07/17 13:35:59;;;;;;;14.68;3.13;;;;;;;;;;4967085;28;98348;-79
2023/07/17 13:38:27;;;;;;;8.05;2.67;;;;;;;;;;4949565;28;98985;-80
2023/07/17 13:40:54;;;;;;;7.90;2.75;;;;;;;;;;4949239;28;98776;-80
2023/07/17 13:43:20;;;;;;;6.90;2.55;;;;;;;;;;4952007;28;98269;-80
2023/07/17 13:45:47;;;;;;;8.75;2.58;;;;;;;;;;4954361;28;99231;-79
2023/07/17 13:48:13;;;;;;;8.27;2.92;;;;;;;;;;4949166;28;99626;-78
2023/07/17 13:50:40;;;;;;;5.90;2.42;;;;;;;;;;4951977;28;101889;-78
2023/07/17 13:53:06;;;;;;;7.85;2.90;;;;;;;;;;4951131;28;99420;-80
2023/07/17 13:55:33;;;;;;;6.80;2.60;;;;;;;;;;4950210;28;99382;-79
2023/07/17 13:57:59;;;;;;;7.13;2.63;;;;;;;;;;4948884;28;99040;-79
2023/07/17 14:00:27;;;;;;;7.88;2.80;;;;;;;;;;4947129;28;99473;-79
2023/07/17 14:02:54;;;;;;;8.60;2.70;;;;;;;;;;4956789;28;98234;-79
2023/07/17 14:05:21;;;;;;;8.02;2.50;;;;;;;;;;4957536;28;98824;-79
2023/07/17 14:07:47;;;;;;;9.80;2.65;;;;;;;;;;4961250;28;98594;-78
2023/07/17 14:10:14;;;;;;;8.27;2.80;;;;;;;;;;4961406;28;98472;-80
2023/07/17 14:12:40;;;;;;;6.93;2.75;;;;;;;;;;4955267;28;100068;-79
2023/07/17 14:15:07;;;;;;;7.50;2.83;;;;;;;;;;4956896;28;98213;-79
2023/07/17 14:17:34;;;;;;;7.10;2.50;;;;;;;;;;4938668;28;101564;-79
2023/07/17 14:20:00;;;;;;;6.95;2.78;;;;;;;;;;4954880;28;101019;-80
2023/07/17 14:22:27;;;;;;;6.85;2.58;;;;;;;;;;4954791;28;99341;-79
2023/07/17 14:24:54;;;;;;;6.28;2.55;;;;;;;;;;4956714;28;98409;-78
2023/07/17 14:27:20;;;;;;;7.47;3.08;;;;;;;;;;4955760;28;99071;-78
2023/07/17 14:29:47;;;;;;;8.05;3.00;;;;;;;;;;4960512;28;97848;-80
2023/07/17 14:32:13;;;;;;;7.82;3.05;;;;;;;;;;4963225;28;98925;-78
2023/07/17 14:34:40;;;;;;;7.53;2.45;;;;;;;;;;4954239;28;98146;-78
2023/07/17 14:37:07;;;;;;;8.35;2.80;;;;;;;;;;4955754;28;99483;-81
2023/07/17 14:39:33;;;;;;;7.07;2.90;;;;;;;;;;4955892;28;99245;-80